createdAt,value
2018-10-09T00:02:10.517Z,6.40
2018-10-09T00:04:39.621Z,7.20
2018-10-09T00:07:08.608Z,7.27
2018-10-09T00:09:38.110Z,6.70
2018-10-09T00:12:07.863Z,5.80
2018-10-09T00:14:36.890Z,5.87
2018-10-09T00:17:05.909Z,6.10
2018-10-09T00:19:34.898Z,6.27
2018-10-09T00:22:03.881Z,6.40
2018-10-09T00:24:32.913Z,6.43
2018-10-09T00:27:01.985Z,5.30
2018-10-09T00:29:31.017Z,6.70
2018-10-09T00:32:00.296Z,6.30
2018-10-09T00:34:30.363Z,6.13
2018-10-09T00:37:00.621Z,6.73
2018-10-09T00:39:29.712Z,6.17
2018-10-09T00:41:58.780Z,6.20
2018-10-09T00:44:27.797Z,6.80
2018-10-09T00:46:56.773Z,5.97
2018-10-09T00:49:28.833Z,7.40
2018-10-09T00:51:57.793Z,7.80
2018-10-09T00:54:26.797Z,8.13
2018-10-09T00:56:56.010Z,8.13
2018-10-09T00:59:25.115Z,8.33
2018-10-09T01:01:54.092Z,8.20
2018-10-09T01:04:23.157Z,8.00
2018-10-09T01:06:52.148Z,6.60
2018-10-09T01:09:21.531Z,6.87
2018-10-09T01:11:50.513Z,6.60
2018-10-09T01:14:19.504Z,7.27
2018-10-09T01:16:48.538Z,6.73
2018-10-09T01:19:17.538Z,6.07
2018-10-09T01:21:46.541Z,7.30
2018-10-09T01:24:16.497Z,6.67
2018-10-09T01:26:46.287Z,7.00
2018-10-09T01:29:15.705Z,8.00
2018-10-09T01:31:44.701Z,7.30
2018-10-09T01:34:13.748Z,7.00
2018-10-09T01:36:42.755Z,7.23
2018-10-09T01:39:11.896Z,8.00
2018-10-09T01:41:40.869Z,7.67
2018-10-09T01:44:09.895Z,6.80
2018-10-09T01:46:39.389Z,7.43
2018-10-09T01:49:08.497Z,6.27
2018-10-09T01:51:37.485Z,6.13
2018-10-09T01:54:06.894Z,6.80
2018-10-09T01:56:36.395Z,6.47
2018-10-09T01:59:06.362Z,7.70
2018-10-09T02:01:35.380Z,7.63
2018-10-09T02:04:04.472Z,6.83
2018-10-09T02:06:34.357Z,7.50
2018-10-09T02:09:03.538Z,6.63
2018-10-09T02:11:33.688Z,7.23
2018-10-09T02:14:02.714Z,7.53
2018-10-09T02:16:31.817Z,7.30
2018-10-09T02:19:01.649Z,6.83
2018-10-09T02:21:30.671Z,6.77
2018-10-09T02:24:00.525Z,7.07
2018-10-09T02:26:29.569Z,6.53
2018-10-09T02:28:58.531Z,7.40
2018-10-09T02:31:27.554Z,7.40
2018-10-09T02:33:56.553Z,6.03
2018-10-09T02:36:26.036Z,5.60
2018-10-09T02:38:55.103Z,6.90
2018-10-09T02:41:24.557Z,7.30
2018-10-09T02:43:53.584Z,6.20
2018-10-09T02:46:22.584Z,6.97
2018-10-09T02:48:51.570Z,7.87
2018-10-09T02:51:20.569Z,6.67
2018-10-09T02:53:49.536Z,6.67
2018-10-09T02:56:18.976Z,8.03
2018-10-09T02:58:48.108Z,8.50
2018-10-09T03:01:17.141Z,8.67
2018-10-09T03:03:46.113Z,8.00
2018-10-09T03:06:15.197Z,8.80
2018-10-09T03:08:44.211Z,9.10
2018-10-09T03:11:13.242Z,8.10
2018-10-09T03:13:42.273Z,7.50
2018-10-09T03:16:11.277Z,7.20
2018-10-09T03:18:40.316Z,8.00
2018-10-09T03:21:09.341Z,7.63
2018-10-09T03:23:38.733Z,7.90
2018-10-09T03:26:08.001Z,7.30
2018-10-09T03:28:38.737Z,6.87
2018-10-09T03:31:07.812Z,8.40
2018-10-09T03:33:36.995Z,7.90
2018-10-09T03:36:06.005Z,8.77
2018-10-09T03:38:34.979Z,8.40
2018-10-09T03:41:04.005Z,8.63
2018-10-09T03:43:33.012Z,8.17
2018-10-09T03:46:02.006Z,7.70
2018-10-09T03:48:30.992Z,7.77
2018-10-09T03:50:59.998Z,7.83
2018-10-09T03:53:28.989Z,7.60
2018-10-09T03:55:58.093Z,7.30
2018-10-09T03:58:27.147Z,7.30
2018-10-09T04:00:56.144Z,7.57
2018-10-09T04:03:25.203Z,8.80
2018-10-09T04:05:54.233Z,7.87
2018-10-09T04:08:23.262Z,8.10
2018-10-09T04:10:52.229Z,7.30
2018-10-09T04:13:21.337Z,7.40
2018-10-09T04:15:50.440Z,7.20
2018-10-09T04:18:19.439Z,7.10
2018-10-09T04:20:49.785Z,7.57
2018-10-09T04:23:18.822Z,7.17
2018-10-09T04:25:47.902Z,7.67
2018-10-09T04:28:16.961Z,8.10
2018-10-09T04:30:45.964Z,9.20
2018-10-09T04:33:15.013Z,8.67
2018-10-09T04:35:44.187Z,9.10
2018-10-09T04:38:13.117Z,10.27
2018-10-09T04:40:42.172Z,9.83
2018-10-09T04:43:11.205Z,10.00
2018-10-09T04:45:40.249Z,12.37
2018-10-09T04:48:09.300Z,11.87
2018-10-09T04:50:38.352Z,10.90
2018-10-09T04:53:07.518Z,10.40
2018-10-09T04:55:36.429Z,11.57
2018-10-09T04:58:05.951Z,12.00
2018-10-09T05:00:36.036Z,11.27
2018-10-09T05:03:05.088Z,12.80
2018-10-09T05:05:34.101Z,11.37
2018-10-09T05:08:03.131Z,11.40
2018-10-09T05:10:32.218Z,11.20
2018-10-09T05:13:01.240Z,10.80
2018-10-09T05:15:30.292Z,11.30
2018-10-09T05:17:59.392Z,10.50
2018-10-09T05:20:28.413Z,11.17
2018-10-09T05:22:57.439Z,10.13
2018-10-09T05:25:26.404Z,11.20
2018-10-09T05:27:55.973Z,12.60
2018-10-09T05:30:24.989Z,10.30
2018-10-09T05:32:53.997Z,12.80
2018-10-09T05:35:23.032Z,11.27
2018-10-09T05:37:52.293Z,9.97
2018-10-09T05:40:21.581Z,10.63
2018-10-09T05:42:50.676Z,11.43
2018-10-09T05:45:19.708Z,21.83
2018-10-09T05:47:48.705Z,12.20
2018-10-09T05:50:17.760Z,15.40
2018-10-09T05:52:46.772Z,15.30
2018-10-09T05:55:15.813Z,20.60
2018-10-09T05:57:44.870Z,9.03
2018-10-09T06:00:13.972Z,10.50
2018-10-09T06:02:43.985Z,9.70
2018-10-09T06:05:13.054Z,9.33
2018-10-09T06:07:42.025Z,10.10
2018-10-09T06:10:11.113Z,8.90
2018-10-09T06:12:40.210Z,9.90
2018-10-09T06:15:09.261Z,8.87
2018-10-09T06:17:38.276Z,8.70
2018-10-09T06:20:07.410Z,9.00
2018-10-09T06:22:36.385Z,9.63
2018-10-09T06:25:05.628Z,10.40
2018-10-09T06:27:34.641Z,8.67
2018-10-09T06:30:03.634Z,7.97
2018-10-09T06:32:32.693Z,8.33
2018-10-09T06:35:01.902Z,8.13
2018-10-09T06:37:30.877Z,8.87
2018-10-09T06:39:59.910Z,8.27
2018-10-09T06:42:28.962Z,11.47
2018-10-09T06:44:57.976Z,9.80
2018-10-09T06:47:27.086Z,9.03
2018-10-09T06:49:56.116Z,10.23
2018-10-09T06:52:25.120Z,7.17
2018-10-09T06:54:54.169Z,7.97
2018-10-09T06:57:23.161Z,7.83
2018-10-09T06:59:52.165Z,8.20
2018-10-09T07:02:21.196Z,9.00
2018-10-09T07:04:50.300Z,8.20
2018-10-09T07:07:19.310Z,8.37
2018-10-09T07:09:48.493Z,8.30
2018-10-09T07:12:17.521Z,7.67
2018-10-09T07:14:46.617Z,8.03
2018-10-09T07:17:15.712Z,8.33
2018-10-09T07:19:46.653Z,8.47
2018-10-09T07:22:16.888Z,8.10
2018-10-09T07:24:46.265Z,8.57
2018-10-09T07:27:15.740Z,8.63
2018-10-09T07:29:44.796Z,8.30
2018-10-09T07:32:13.823Z,9.00
2018-10-09T07:34:42.803Z,8.80
2018-10-09T07:37:12.464Z,9.57
2018-10-09T07:39:41.458Z,9.00
2018-10-09T07:42:10.469Z,9.80
2018-10-09T07:44:39.648Z,9.10
2018-10-09T07:47:08.894Z,9.10
2018-10-09T07:49:37.907Z,9.40
2018-10-09T07:52:07.062Z,9.60
2018-10-09T07:54:36.077Z,9.67
2018-10-09T07:57:05.124Z,9.63
2018-10-09T07:59:34.115Z,9.87
2018-10-09T08:02:03.185Z,10.10
2018-10-09T08:04:32.184Z,9.00
2018-10-09T08:07:01.304Z,11.73
2018-10-09T08:09:30.316Z,11.70
2018-10-09T08:11:59.337Z,11.10
2018-10-09T08:14:28.320Z,10.80
2018-10-09T08:16:57.369Z,11.47
2018-10-09T08:19:26.370Z,12.70
2018-10-09T08:21:55.413Z,11.00
2018-10-09T08:24:24.490Z,11.50
2018-10-09T08:26:53.520Z,12.30
2018-10-09T08:29:22.600Z,11.30
2018-10-09T08:31:51.630Z,12.30
2018-10-09T08:34:20.648Z,13.10
2018-10-09T08:36:49.841Z,14.23
2018-10-09T08:39:18.849Z,13.77
2018-10-09T08:41:47.908Z,13.43
2018-10-09T08:44:16.926Z,13.37
2018-10-09T08:46:46.010Z,12.73
2018-10-09T08:49:15.855Z,13.73
2018-10-09T08:51:45.156Z,13.87
2018-10-09T08:54:14.212Z,14.10
2018-10-09T08:56:43.342Z,15.23
2018-10-09T08:59:12.348Z,15.10
2018-10-09T09:01:41.401Z,14.07
2018-10-09T09:04:10.440Z,15.93
2018-10-09T09:06:39.625Z,15.00
2018-10-09T09:09:10.324Z,16.13
2018-10-09T09:11:39.340Z,17.07
2018-10-09T09:14:08.413Z,16.50
2018-10-09T09:16:37.461Z,17.90
2018-10-09T09:19:06.465Z,16.97
2018-10-09T09:21:35.481Z,17.87
2018-10-09T09:24:04.505Z,17.80
2018-10-09T09:26:33.543Z,16.83
2018-10-09T09:29:02.672Z,17.10
2018-10-09T09:31:31.726Z,17.33
2018-10-09T09:34:00.856Z,17.20
2018-10-09T09:36:29.902Z,17.77
2018-10-09T09:38:58.986Z,15.83
2018-10-09T09:41:28.070Z,17.07
2018-10-09T09:43:57.130Z,16.57
2018-10-09T09:46:26.220Z,16.60
2018-10-09T09:48:55.285Z,18.03
2018-10-09T09:51:24.285Z,16.60
2018-10-09T09:53:53.322Z,16.90
2018-10-09T09:56:22.401Z,17.20
2018-10-09T09:58:51.585Z,17.53
2018-10-09T10:01:24.664Z,17.40
2018-10-09T10:03:53.854Z,17.50
2018-10-09T10:06:22.948Z,18.30
2018-10-09T10:08:52.055Z,16.80
2018-10-09T10:11:21.049Z,18.50
2018-10-09T10:13:50.077Z,17.87
2018-10-09T10:16:19.113Z,18.53
2018-10-09T10:18:48.130Z,17.80
2018-10-09T10:21:17.419Z,17.70
2018-10-09T10:23:46.468Z,16.97
2018-10-09T10:26:15.561Z,17.17
2018-10-09T10:28:44.672Z,16.90
2018-10-09T10:31:13.673Z,17.87
2018-10-09T10:33:42.791Z,18.03
2018-10-09T10:36:11.778Z,18.23
2018-10-09T10:38:40.807Z,15.90
2018-10-09T10:41:09.861Z,16.93
2018-10-09T10:43:38.889Z,18.37
2018-10-09T10:46:08.421Z,17.50
2018-10-09T10:48:42.036Z,17.13
2018-10-09T10:51:11.059Z,17.03
2018-10-09T10:53:40.097Z,16.60
2018-10-09T10:56:09.104Z,17.47
2018-10-09T10:58:38.117Z,17.47
2018-10-09T11:01:07.504Z,15.90
2018-10-09T11:03:36.548Z,16.50
2018-10-09T11:06:05.578Z,16.77
2018-10-09T11:08:34.708Z,16.47
2018-10-09T11:11:03.806Z,16.63
2018-10-09T11:13:32.829Z,16.77
2018-10-09T11:16:01.904Z,17.87
2018-10-09T11:18:30.921Z,18.67
2018-10-09T11:20:59.995Z,14.70
2018-10-09T11:23:29.061Z,17.23
2018-10-09T11:25:58.670Z,15.57
2018-10-09T11:28:27.719Z,15.73
2018-10-09T11:30:56.793Z,17.80
2018-10-09T11:33:26.009Z,17.77
2018-10-09T11:35:55.098Z,15.20
2018-10-09T11:38:24.329Z,16.10
2018-10-09T11:40:53.385Z,15.90
2018-10-09T11:43:22.442Z,16.17
2018-10-09T11:45:51.498Z,16.80
2018-10-09T11:48:20.562Z,15.60
2018-10-09T11:50:49.633Z,18.40
2018-10-09T11:53:18.787Z,14.47
2018-10-09T11:55:48.005Z,14.40
2018-10-09T11:58:17.016Z,14.83
2018-10-09T12:00:47.507Z,14.97
2018-10-09T12:03:16.554Z,14.43
2018-10-09T12:05:45.575Z,14.17
2018-10-09T12:08:20.056Z,16.20
2018-10-09T12:10:49.053Z,15.03
2018-10-09T12:13:18.104Z,14.17
2018-10-09T12:15:47.164Z,14.93
2018-10-09T12:18:16.298Z,13.77
2018-10-09T12:20:45.312Z,13.53
2018-10-09T12:23:14.341Z,14.13
2018-10-09T12:25:43.348Z,13.80
2018-10-09T12:28:12.384Z,15.37
2018-10-09T12:30:41.409Z,15.30
2018-10-09T12:33:10.413Z,13.67
2018-10-09T12:35:39.430Z,14.13
2018-10-09T12:38:08.501Z,13.90
2018-10-09T12:40:37.488Z,14.47
2018-10-09T12:43:06.515Z,14.40
2018-10-09T12:45:35.525Z,13.40
2018-10-09T12:48:04.638Z,13.07
2018-10-09T12:50:33.666Z,12.50
2018-10-09T12:53:02.815Z,14.00
2018-10-09T12:55:31.814Z,12.97
2018-10-09T12:58:01.091Z,12.90
2018-10-09T13:00:30.186Z,12.90
2018-10-09T13:02:59.433Z,13.50
2018-10-09T13:05:28.505Z,13.83
2018-10-09T13:07:57.614Z,12.77
2018-10-09T13:10:26.653Z,11.10
2018-10-09T13:12:55.674Z,12.13
2018-10-09T13:15:24.712Z,13.40
2018-10-09T13:17:53.776Z,12.03
2018-10-09T13:20:22.874Z,12.20
2018-10-09T13:22:51.948Z,12.13
2018-10-09T13:25:20.931Z,13.63
2018-10-09T13:27:49.989Z,11.77
2018-10-09T13:30:18.993Z,12.37
2018-10-09T13:32:48.046Z,12.20
2018-10-09T13:35:17.249Z,12.70
2018-10-09T13:37:46.241Z,11.50
2018-10-09T13:40:15.382Z,13.80
2018-10-09T13:42:44.375Z,11.80
2018-10-09T13:45:13.395Z,12.33
2018-10-09T13:47:42.461Z,11.70
2018-10-09T13:50:11.557Z,11.30
2018-10-09T13:52:40.556Z,11.70
2018-10-09T13:55:09.813Z,12.17
2018-10-09T13:57:38.785Z,11.90
2018-10-09T14:00:07.889Z,13.10
2018-10-09T14:02:36.913Z,11.50
2018-10-09T14:05:05.981Z,12.40
2018-10-09T14:07:35.155Z,12.03
2018-10-09T14:10:04.310Z,11.50
2018-10-09T14:12:33.314Z,12.07
2018-10-09T14:15:02.453Z,12.37
2018-10-09T14:17:31.459Z,10.63
2018-10-09T14:20:00.523Z,10.93
2018-10-09T14:22:29.633Z,14.50
2018-10-09T14:24:58.917Z,12.20
2018-10-09T14:27:27.914Z,12.60
2018-10-09T14:29:56.957Z,10.43
2018-10-09T14:32:25.941Z,9.70
2018-10-09T14:34:55.000Z,9.40
2018-10-09T14:37:24.036Z,10.03
2018-10-09T14:39:53.090Z,9.93
2018-10-09T14:42:22.112Z,10.70
2018-10-09T14:44:51.216Z,9.80
2018-10-09T14:47:20.214Z,9.77
2018-10-09T14:49:49.229Z,9.90
2018-10-09T14:52:18.247Z,9.80
2018-10-09T14:54:47.286Z,9.90
2018-10-09T14:57:16.370Z,10.07
2018-10-09T14:59:45.451Z,9.47
2018-10-09T15:02:14.481Z,10.43
2018-10-09T15:04:43.546Z,9.90
2018-10-09T15:07:12.548Z,10.57
2018-10-09T15:09:41.642Z,11.70
2018-10-09T15:12:10.748Z,11.17
2018-10-09T15:14:39.762Z,9.80
2018-10-09T15:17:08.851Z,10.60
2018-10-09T15:19:37.826Z,9.37
2018-10-09T15:22:06.903Z,8.97
2018-10-09T15:24:36.194Z,9.70
2018-10-09T15:27:05.222Z,10.50
2018-10-09T15:29:34.227Z,9.73
2018-10-09T15:32:03.347Z,10.10
2018-10-09T15:34:32.662Z,10.70
2018-10-09T15:37:01.706Z,10.37
2018-10-09T15:39:30.717Z,10.20
2018-10-09T15:41:59.909Z,10.33
2018-10-09T15:44:28.900Z,9.80
2018-10-09T15:46:57.937Z,10.63
2018-10-09T15:49:27.024Z,10.40
2018-10-09T15:51:56.062Z,10.23
2018-10-09T15:54:25.173Z,9.70
2018-10-09T15:56:54.193Z,10.10
2018-10-09T15:59:23.189Z,11.87
2018-10-09T16:01:52.226Z,9.97
2018-10-09T16:04:21.573Z,9.70
2018-10-09T16:06:50.600Z,10.50
2018-10-09T16:09:19.641Z,9.67
2018-10-09T16:11:48.788Z,9.30
2018-10-09T16:14:17.817Z,10.03
2018-10-09T16:16:46.876Z,9.30
2018-10-09T16:19:16.892Z,9.90
2018-10-09T16:21:45.904Z,9.20
2018-10-09T16:24:14.891Z,10.10
2018-10-09T16:26:43.916Z,9.10
2018-10-09T16:29:12.962Z,10.50
2018-10-09T16:31:42.116Z,10.47
2018-10-09T16:34:11.131Z,9.80
2018-10-09T16:36:41.252Z,9.97
2018-10-09T16:39:12.183Z,9.73
2018-10-09T16:41:42.220Z,11.60
2018-10-09T16:44:11.781Z,11.93
2018-10-09T16:46:42.136Z,13.50
2018-10-09T16:49:11.424Z,11.00
2018-10-09T16:51:40.492Z,12.83
2018-10-09T16:54:11.869Z,11.07
2018-10-09T16:56:41.358Z,11.20
2018-10-09T16:59:11.163Z,10.23
2018-10-09T17:01:40.565Z,9.20
2018-10-09T17:04:09.633Z,9.63
2018-10-09T17:06:39.246Z,9.17
2018-10-09T17:09:09.404Z,11.60
2018-10-09T17:11:38.878Z,11.00
2018-10-09T17:14:08.933Z,11.30
2018-10-09T17:16:38.036Z,10.90
2018-10-09T17:19:07.073Z,11.13
2018-10-09T17:21:36.423Z,10.57
2018-10-09T17:24:05.933Z,10.93
2018-10-09T17:26:35.030Z,10.70
2018-10-09T17:29:04.040Z,10.67
2018-10-09T17:31:33.081Z,10.10
2018-10-09T17:34:02.137Z,10.63
2018-10-09T17:36:31.212Z,10.97
2018-10-09T17:39:00.352Z,10.33
2018-10-09T17:41:29.448Z,10.33
2018-10-09T17:43:58.510Z,10.70
2018-10-09T17:46:27.742Z,10.03
2018-10-09T17:48:56.640Z,11.73
2018-10-09T17:51:25.678Z,10.50
2018-10-09T17:53:55.695Z,11.67
2018-10-09T17:56:24.805Z,11.63
2018-10-09T17:58:54.542Z,12.93
2018-10-09T18:01:23.649Z,13.00
2018-10-09T18:03:54.325Z,13.03
2018-10-09T18:06:23.705Z,13.10
2018-10-09T18:08:52.840Z,13.20
2018-10-09T18:11:21.941Z,13.10
2018-10-09T18:13:51.027Z,12.07
2018-10-09T18:16:20.173Z,14.97
2018-10-09T18:18:49.248Z,14.57
2018-10-09T18:21:18.476Z,16.57
2018-10-09T18:23:48.978Z,13.73
2018-10-09T18:26:18.409Z,12.63
2018-10-09T18:28:48.590Z,13.30
2018-10-09T18:31:18.157Z,12.87
2018-10-09T18:33:47.343Z,15.03
2018-10-09T18:36:16.453Z,13.87
2018-10-09T18:38:45.581Z,13.90
2018-10-09T18:41:14.698Z,14.90
2018-10-09T18:43:43.704Z,13.40
2018-10-09T18:46:12.855Z,14.60
2018-10-09T18:48:43.057Z,14.67
2018-10-09T18:51:12.114Z,14.90
2018-10-09T18:53:41.201Z,15.87
2018-10-09T18:56:10.243Z,16.00
2018-10-09T18:58:39.417Z,15.10
2018-10-09T19:01:08.570Z,15.93
2018-10-09T19:03:37.665Z,16.43
2018-10-09T19:06:06.814Z,15.90
2018-10-09T19:08:36.182Z,15.73
2018-10-09T19:11:05.209Z,12.93
2018-10-09T19:13:34.289Z,12.67
2018-10-09T19:16:03.417Z,14.03
2018-10-09T19:18:32.705Z,13.53
2018-10-09T19:21:02.785Z,15.17
2018-10-09T19:23:33.676Z,14.23
2018-10-09T19:26:03.100Z,14.67
2018-10-09T19:28:32.168Z,14.77
2018-10-09T19:31:01.277Z,15.47
2018-10-09T19:33:30.483Z,16.23
2018-10-09T19:35:59.527Z,15.93
2018-10-09T19:38:28.597Z,15.50
2018-10-09T19:40:57.681Z,16.23
2018-10-09T19:43:27.198Z,17.23
2018-10-09T19:45:56.541Z,17.37
2018-10-09T19:48:25.652Z,16.77
2018-10-09T19:50:56.285Z,15.90
2018-10-09T19:53:25.401Z,16.27
2018-10-09T19:55:54.428Z,15.93
2018-10-09T19:58:23.493Z,16.83
2018-10-09T20:00:54.533Z,16.90
2018-10-09T20:03:24.385Z,15.87
2018-10-09T20:05:53.465Z,16.67
2018-10-09T20:08:25.647Z,17.40
2018-10-09T20:10:54.844Z,15.80
2018-10-09T20:13:33.245Z,17.23
2018-10-09T20:16:02.336Z,16.90
2018-10-09T20:18:31.364Z,16.60
2018-10-09T20:21:00.498Z,16.63
2018-10-09T20:23:29.518Z,17.20
2018-10-09T20:25:58.716Z,17.70
2018-10-09T20:28:27.901Z,16.80
2018-10-09T20:30:57.320Z,17.90
2018-10-09T20:33:26.374Z,16.60
2018-10-09T20:35:56.693Z,15.77
2018-10-09T20:38:25.694Z,17.67
2018-10-09T20:40:54.806Z,17.83
2018-10-09T20:43:24.672Z,17.50
2018-10-09T20:45:53.713Z,18.37
2018-10-09T20:48:22.717Z,17.77
2018-10-09T20:50:52.109Z,17.67
2018-10-09T20:53:21.105Z,18.93
2018-10-09T20:55:50.940Z,16.70
2018-10-09T20:58:19.950Z,18.40
2018-10-09T21:00:49.001Z,17.23
2018-10-09T21:03:18.089Z,17.80
2018-10-09T21:05:47.149Z,17.57
2018-10-09T21:08:16.119Z,18.40
2018-10-09T21:10:45.332Z,18.10
2018-10-09T21:13:14.444Z,18.70
2018-10-09T21:15:43.489Z,19.70
2018-10-09T21:18:12.597Z,18.37
2018-10-09T21:20:41.620Z,18.20
2018-10-09T21:23:10.649Z,18.23
2018-10-09T21:25:39.829Z,19.83
2018-10-09T21:28:09.618Z,18.40
2018-10-09T21:30:39.286Z,19.73
2018-10-09T21:33:08.405Z,19.10
2018-10-09T21:35:37.445Z,20.10
2018-10-09T21:38:06.515Z,20.20
2018-10-09T21:40:36.238Z,20.03
2018-10-09T21:43:05.238Z,19.67
2018-10-09T21:45:34.288Z,18.90
2018-10-09T21:48:04.818Z,20.87
2018-10-09T21:50:33.926Z,21.53
2018-10-09T21:53:02.967Z,21.07
2018-10-09T21:55:32.009Z,25.07
2018-10-09T21:58:01.718Z,22.30
2018-10-09T22:00:36.992Z,20.50
2018-10-09T22:03:06.093Z,21.10
2018-10-09T22:05:35.116Z,20.10
2018-10-09T22:08:04.575Z,21.20
2018-10-09T22:10:33.593Z,21.20
2018-10-09T22:13:03.261Z,21.07
2018-10-09T22:15:32.432Z,21.17
2018-10-09T22:18:01.429Z,24.77
2018-10-09T22:20:30.446Z,22.97
2018-10-09T22:22:59.533Z,21.53
2018-10-09T22:25:29.759Z,23.20
2018-10-09T22:27:59.885Z,22.27
2018-10-09T22:30:28.934Z,21.70
2018-10-09T22:32:58.702Z,26.40
2018-10-09T22:35:27.713Z,21.73
2018-10-09T22:37:56.749Z,23.63
2018-10-09T22:40:25.780Z,22.13
2018-10-09T22:42:54.757Z,21.93
2018-10-09T22:45:23.837Z,23.63
2018-10-09T22:47:53.762Z,23.93
2018-10-09T22:50:22.774Z,23.10
2018-10-09T22:52:52.205Z,23.67
2018-10-09T22:55:21.285Z,22.40
2018-10-09T22:57:51.489Z,23.07
2018-10-09T23:00:21.204Z,22.00
2018-10-09T23:02:50.209Z,21.57
2018-10-09T23:05:19.228Z,20.97
2018-10-09T23:07:48.584Z,21.30
2018-10-09T23:10:17.612Z,21.50
2018-10-09T23:12:46.616Z,19.03
2018-10-09T23:15:15.676Z,21.27
2018-10-09T23:17:44.724Z,22.00
2018-10-09T23:20:13.733Z,20.67
2018-10-09T23:22:42.737Z,20.10
2018-10-09T23:25:11.853Z,20.67
2018-10-09T23:27:40.849Z,22.77
2018-10-09T23:30:11.334Z,20.50
2018-10-09T23:32:40.444Z,21.23
2018-10-09T23:35:10.243Z,21.27
2018-10-09T23:37:39.429Z,22.70
2018-10-09T23:40:08.505Z,21.13
2018-10-09T23:42:38.227Z,20.70
2018-10-09T23:45:07.637Z,21.87
2018-10-09T23:47:36.651Z,20.67
2018-10-09T23:50:05.658Z,20.63
2018-10-09T23:52:34.715Z,22.63
2018-10-09T23:55:03.850Z,22.13
2018-10-09T23:57:32.937Z,22.00
